Time;durP1;ratioP1;P1;durP2;ratioP2;P2;SDS_P1;SDS_P2;PMS_P1;PMS_P2;Temp;Humidity;BMP_temperature;BMP_pressure;BME280_temperature;BME280_humidity;BME280_pressure;Samples;Min_cycle;Max_cycle;Signal;HPM_P1;HPM_P2
2024/04/23 00:00:17;;;;;;;23.30;12.30;;;;;;;1.80;75.28;100416.48;219184;1257;141083;-69
2024/04/23 00:05:19;;;;;;;23.50;12.70;;;;;;;1.82;75.35;100409.92;217594;1259;140305;-69
2024/04/23 00:10:20;;;;;;;22.40;14.80;;;;;;;1.83;75.62;100417.20;217132;1257;143201;-68
2024/04/23 00:15:22;;;;;;;27.70;13.30;;;;;;;1.82;75.78;100414.45;217596;1257;140669;-66
2024/04/23 00:20:24;;;;;;;32.80;15.10;;;;;;;1.83;76.07;100410.50;217532;1256;141227;-67
2024/04/23 00:25:25;;;;;;;27.70;15.40;;;;;;;1.83;75.89;100412.10;217938;1257;140070;-67
2024/04/23 00:30:27;;;;;;;20.20;14.00;;;;;;;1.79;76.15;100411.62;217286;1259;211224;-65
2024/04/23 00:35:28;;;;;;;22.10;14.00;;;;;;;1.68;75.92;100413.16;217617;1256;140377;-67
2024/04/23 00:40:30;;;;;;;27.50;15.10;;;;;;;1.57;75.88;100413.38;217172;1258;140449;-67
2024/04/23 00:45:36;;;;;;;19.10;14.10;;;;;;;1.55;76.22;100411.67;217593;1257;141126;-67
2024/04/23 00:50:39;;;;;;;21.40;14.00;;;;;;;1.51;76.45;100405.86;216956;1260;140417;-67
2024/04/23 00:55:42;;;;;;;26.40;14.90;;;;;;;1.47;76.23;100400.60;217140;1256;140738;-66
2024/04/23 01:00:44;;;;;;;24.30;14.70;;;;;;;1.50;76.49;100399.83;217276;1260;140467;-67
2024/04/23 01:05:47;;;;;;;20.90;13.60;;;;;;;1.54;76.79;100386.67;217210;1257;141561;-66
2024/04/23 01:10:49;;;;;;;28.00;15.00;;;;;;;1.57;77.03;100384.61;216951;1257;141031;-66
2024/04/23 01:15:50;;;;;;;28.50;15.40;;;;;;;1.60;77.26;100385.96;217353;1257;141173;-65
2024/04/23 01:20:57;;;;;;;25.30;14.20;;;;;;;1.59;76.97;100379.36;217497;1259;140254;-67
2024/04/23 01:26:08;;;;;;;23.50;13.10;;;;;;;1.58;76.99;100381.69;217128;1256;140662;-67
2024/04/23 01:31:10;;;;;;;27.90;16.40;;;;;;;1.54;77.20;100381.16;218285;1258;140493;-67
2024/04/23 01:36:12;;;;;;;21.60;15.10;;;;;;;1.54;77.22;100377.68;217181;1259;140309;-67
2024/04/23 01:41:15;;;;;;;21.50;13.20;;;;;;;1.53;77.25;100382.50;217448;1257;141003;-67
2024/04/23 01:46:18;;;;;;;32.50;14.50;;;;;;;1.43;76.96;100378.67;217096;1257;140496;-67
2024/04/23 01:51:20;;;;;;;27.30;17.10;;;;;;;1.40;77.29;100383.36;217515;1257;141246;-66
2024/04/23 01:56:22;;;;;;;26.20;14.80;;;;;;;1.36;77.23;100384.80;218060;1257;141276;-67
2024/04/23 02:01:26;;;;;;;18.00;12.80;;;;;;;1.36;77.58;100386.40;217455;1257;140858;-66
2024/04/23 02:06:28;;;;;;;28.00;15.50;;;;;;;1.29;77.17;100384.11;217672;1257;141138;-67
2024/04/23 02:11:30;;;;;;;22.10;13.40;;;;;;;1.26;77.64;100382.98;218137;1256;140605;-67
2024/04/23 02:16:32;;;;;;;20.50;13.80;;;;;;;1.29;77.86;100377.27;217523;1256;141031;-68
2024/04/23 02:21:33;;;;;;;23.60;13.20;;;;;;;1.30;77.68;100385.09;217466;1256;140404;-66
2024/04/23 02:26:44;;;;;;;17.90;12.60;;;;;;;1.32;77.83;100391.02;217599;1256;140404;-66
2024/04/23 02:31:46;;;;;;;23.60;14.50;;;;;;;1.31;77.82;100388.84;217496;1258;140423;-66
2024/04/23 02:36:48;;;;;;;23.50;15.20;;;;;;;1.27;78.27;100385.93;217511;1255;141635;-66
2024/04/23 02:41:51;;;;;;;21.40;13.50;;;;;;;1.28;78.14;100380.55;217491;1257;141431;-66
2024/04/23 02:46:53;;;;;;;20.10;13.30;;;;;;;1.21;77.85;100375.38;217452;1257;141316;-65
2024/04/23 02:51:55;;;;;;;23.60;15.10;;;;;;;1.15;77.88;100370.18;217685;1259;140614;-64
2024/04/23 02:56:59;;;;;;;27.90;16.80;;;;;;;1.16;78.27;100377.48;217517;1258;141226;-65
2024/04/23 03:02:06;;;;;;;21.50;13.80;;;;;;;1.18;78.47;100376.53;217318;1256;141051;-66
2024/04/23 03:07:08;;;;;;;18.60;12.10;;;;;;;1.19;78.16;100374.48;217536;1257;140323;-65
2024/04/23 03:12:13;;;;;;;27.50;16.00;;;;;;;1.17;78.38;100371.27;217409;1256;140925;-65
2024/04/23 03:17:14;;;;;;;24.30;13.80;;;;;;;1.17;78.74;100375.11;217575;1259;141530;-66
2024/04/23 03:22:16;;;;;;;15.80;11.60;;;;;;;1.14;78.80;100376.91;217673;1257;140936;-66
2024/04/23 03:27:18;;;;;;;27.40;15.60;;;;;;;1.08;79.18;100375.49;217989;1257;141393;-66
2024/04/23 03:32:20;;;;;;;20.90;15.40;;;;;;;1.07;79.21;100376.58;220313;1256;140993;-66
2024/04/23 03:37:21;;;;;;;24.80;15.00;;;;;;;1.12;79.57;100373.61;220522;1256;141076;-68
2024/04/23 03:42:23;;;;;;;23.10;14.30;;;;;;;1.18;79.53;100375.13;218595;1257;141182;-69
2024/04/23 03:47:25;;;;;;;20.90;12.10;;;;;;;1.22;79.25;100378.21;217563;1257;140298;-66
2024/04/23 03:52:26;;;;;;;20.10;14.10;;;;;;;1.17;79.12;100379.05;218678;1257;140336;-69
2024/04/23 03:57:28;;;;;;;20.40;12.10;;;;;;;1.21;79.71;100381.10;217654;1257;140587;-66
2024/04/23 04:07:51;;;;;;;20.00;14.00;;;;;;;1.23;79.13;100376.48;217318;1257;141480;-64
2024/04/23 04:12:53;;;;;;;23.30;14.80;;;;;;;1.20;79.26;100372.11;217336;1257;142077;-66
2024/04/23 04:17:55;;;;;;;20.80;12.90;;;;;;;1.26;79.75;100369.19;217424;1255;140286;-65
2024/04/23 04:22:57;;;;;;;26.10;15.00;;;;;;;1.34;79.44;100359.64;217505;1257;140475;-66
2024/04/23 04:27:58;;;;;;;18.70;11.60;;;;;;;1.43;79.65;100353.10;217331;1260;142199;-66
2024/04/23 04:32:59;;;;;;;23.70;13.00;;;;;;;1.45;79.24;100348.27;217230;1261;141206;-66
2024/04/23 04:38:01;;;;;;;19.80;14.10;;;;;;;1.55;79.48;100350.08;217097;1257;140124;-69
2024/04/23 04:43:03;;;;;;;19.00;12.10;;;;;;;1.65;79.63;100347.74;217429;1258;142222;-67
2024/04/23 04:48:05;;;;;;;22.40;13.90;;;;;;;1.74;79.47;100349.51;217245;1256;141918;-68
2024/04/23 04:53:06;;;;;;;22.10;12.70;;;;;;;1.84;79.27;100345.49;217394;1257;140978;-66
2024/04/23 04:58:08;;;;;;;23.10;13.50;;;;;;;1.94;79.40;100346.52;218396;1259;142131;-66
2024/04/23 05:03:09;;;;;;;20.70;13.00;;;;;;;2.09;79.33;100344.49;218084;1260;141755;-66
2024/04/23 05:08:11;;;;;;;18.50;10.60;;;;;;;2.25;79.42;100338.26;217408;1256;141033;-67
2024/04/23 05:13:13;;;;;;;18.70;12.70;;;;;;;2.39;78.86;100345.42;218574;1259;140305;-67
2024/04/23 05:18:16;;;;;;;20.90;12.80;;;;;;;2.55;78.75;100344.62;217703;1260;139785;-65
2024/04/23 05:23:17;;;;;;;22.30;15.20;;;;;;;2.73;78.34;100341.59;217745;1260;139881;-67
2024/04/23 05:28:19;;;;;;;19.50;11.70;;;;;;;2.95;78.42;100344.27;219300;1257;140267;-70
2024/04/23 05:33:21;;;;;;;19.00;11.70;;;;;;;3.18;77.94;100340.41;219356;1256;140443;-70
2024/04/23 05:38:22;;;;;;;18.00;11.30;;;;;;;3.50;78.02;100339.58;219658;1256;141750;-68
2024/04/23 05:43:25;;;;;;;17.70;11.40;;;;;;;3.79;77.33;100341.36;218459;1259;141214;-68
2024/04/23 05:49:04;;;;;;;17.00;11.40;;;;;;;3.97;76.91;100344.86;217436;1257;140293;-68
2024/04/23 05:54:43;;;;;;;12.90;10.20;;;;;;;4.13;76.38;100347.86;217758;1259;140339;-68
2024/04/23 05:59:45;;;;;;;15.30;10.10;;;;;;;4.27;76.12;100351.31;217228;1257;141011;-67
2024/04/23 06:04:47;;;;;;;17.10;11.50;;;;;;;4.34;75.49;100360.92;217581;1257;140957;-66
2024/04/23 06:09:48;;;;;;;12.40;10.50;;;;;;;4.38;75.07;100359.57;217526;1257;140751;-68
2024/04/23 06:14:50;;;;;;;13.30;9.90;;;;;;;4.48;75.15;100362.88;217444;1257;163366;-67
2024/04/23 06:19:51;;;;;;;13.60;8.60;;;;;;;4.52;74.48;100367.84;217926;1257;140688;-68
2024/04/23 06:24:55;;;;;;;19.00;8.20;;;;;;;4.61;74.37;100371.68;217372;1259;139987;-67
2024/04/23 06:30:07;;;;;;;13.70;8.30;;;;;;;4.75;73.97;100374.83;217608;1258;140517;-68
2024/04/23 06:35:10;;;;;;;15.00;9.10;;;;;;;4.88;73.63;100371.66;217589;1257;140120;-68
2024/04/23 06:40:13;;;;;;;15.00;9.60;;;;;;;5.02;73.32;100370.29;217662;1256;141785;-68
2024/04/23 06:45:15;;;;;;;12.10;7.90;;;;;;;5.24;72.99;100370.12;217546;1258;140217;-69
2024/04/23 06:50:16;;;;;;;11.50;7.60;;;;;;;5.41;72.61;100376.88;217371;1259;140772;-69
2024/04/23 06:55:19;;;;;;;11.10;9.50;;;;;;;5.51;72.08;100369.01;218092;1257;141231;-67
2024/04/23 07:00:21;;;;;;;8.70;6.90;;;;;;;5.67;71.57;100369.51;217892;1257;141525;-67
2024/04/23 07:05:23;;;;;;;5.80;4.00;;;;;;;5.87;70.73;100368.43;217741;1259;140040;-67
2024/04/23 07:10:25;;;;;;;10.20;5.70;;;;;;;6.05;70.03;100371.22;217397;1259;143739;-67
2024/04/23 07:15:27;;;;;;;6.90;5.30;;;;;;;6.35;69.41;100369.81;219599;1257;140720;-68
2024/04/23 07:20:29;;;;;;;5.00;4.30;;;;;;;6.59;68.99;100370.08;219727;1257;141002;-68
2024/04/23 07:25:31;;;;;;;7.80;5.70;;;;;;;6.81;68.51;100370.54;217526;1259;140827;-68
2024/04/23 07:30:35;;;;;;;8.10;5.60;;;;;;;7.11;67.33;100365.52;217549;1257;139636;-69
2024/04/23 07:35:37;;;;;;;6.30;4.90;;;;;;;7.22;66.83;100356.85;217429;1257;140840;-67
2024/04/23 07:40:43;;;;;;;6.70;4.30;;;;;;;7.48;66.24;100357.47;217746;1256;141239;-69
2024/04/23 07:45:45;;;;;;;4.60;4.10;;;;;;;7.75;64.81;100353.09;218131;1259;140406;-68
2024/04/23 07:50:47;;;;;;;9.60;4.30;;;;;;;7.73;63.92;100347.94;217422;1256;139824;-67
2024/04/23 07:55:48;;;;;;;5.90;4.10;;;;;;;7.75;64.28;100350.73;218324;1256;140175;-66
2024/04/23 08:00:50;;;;;;;6.60;4.40;;;;;;;7.65;63.47;100348.53;217406;1259;140155;-67
2024/04/23 08:05:55;;;;;;;5.00;3.50;;;;;;;7.59;62.92;100345.27;217484;1257;139410;-67
2024/04/23 08:10:58;;;;;;;4.40;2.90;;;;;;;7.55;61.88;100346.84;218434;1256;140125;-67
2024/04/23 08:16:00;;;;;;;6.80;3.40;;;;;;;7.50;61.96;100345.97;217573;1257;150336;-68
2024/04/23 08:21:05;;;;;;;3.20;2.30;;;;;;;7.49;61.52;100334.61;217554;1257;141001;-68
2024/04/23 08:26:14;;;;;;;2.70;2.10;;;;;;;7.53;60.89;100330.52;217462;1257;140869;-67
2024/04/23 08:31:16;;;;;;;3.40;2.60;;;;;;;7.63;60.12;100330.98;217781;1259;140319;-70
2024/04/23 08:36:18;;;;;;;2.60;1.70;;;;;;;7.76;59.19;100333.25;217923;1259;140060;-70
2024/04/23 08:41:23;;;;;;;4.40;2.80;;;;;;;7.64;57.97;100321.80;217605;1257;139482;-71
2024/04/23 08:46:25;;;;;;;4.50;3.00;;;;;;;7.62;58.15;100315.89;218612;1259;140770;-71
2024/04/23 08:51:28;;;;;;;3.60;3.20;;;;;;;7.89;58.03;100310.77;217641;1256;139068;-68
2024/04/23 08:56:31;;;;;;;3.90;3.00;;;;;;;8.27;58.47;100308.48;217230;1257;139380;-71
2024/04/23 09:01:39;;;;;;;4.20;3.40;;;;;;;8.68;58.53;100302.77;218347;1257;141051;-69
2024/04/23 09:06:42;;;;;;;4.10;3.70;;;;;;;8.95;57.40;100295.48;217298;1257;140900;-69
2024/04/23 09:11:44;;;;;;;6.50;5.20;;;;;;;8.98;55.53;100299.80;217206;1260;139491;-70
2024/04/23 09:16:46;;;;;;;4.40;3.00;;;;;;;8.81;54.85;100295.83;217775;1259;139926;-70
2024/04/23 09:21:49;;;;;;;4.10;3.60;;;;;;;8.83;54.38;100291.39;217696;1259;140382;-70
2024/04/23 09:26:51;;;;;;;3.70;3.40;;;;;;;9.06;54.82;100291.59;217831;1259;140294;-71
2024/04/23 09:31:52;;;;;;;7.10;3.30;;;;;;;9.58;55.33;100278.77;217369;1260;140156;-68
2024/04/23 09:36:54;;;;;;;4.40;3.60;;;;;;;9.87;54.57;100277.23;218082;1256;140062;-70
2024/04/23 09:41:58;;;;;;;4.50;4.00;;;;;;;9.96;53.59;100271.59;217403;1260;139069;-70
2024/04/23 09:47:00;;;;;;;3.70;3.40;;;;;;;9.99;53.44;100266.15;217333;1261;140387;-70
2024/04/23 09:52:01;;;;;;;3.50;3.00;;;;;;;10.04;52.86;100263.27;218384;1260;140038;-68
2024/04/23 09:57:02;;;;;;;3.50;2.90;;;;;;;10.34;52.59;100256.42;217229;1261;207289;-70
2024/04/23 10:02:10;;;;;;;6.80;5.20;;;;;;;10.65;52.30;100249.06;217381;1259;140316;-69
2024/04/23 10:07:15;;;;;;;4.80;4.40;;;;;;;10.77;51.81;100241.14;217578;1260;140467;-70
2024/04/23 10:12:23;;;;;;;4.30;3.90;;;;;;;10.79;51.45;100237.05;217377;1259;141410;-70
2024/04/23 10:17:37;;;;;;;6.10;4.40;;;;;;;11.12;51.36;100230.31;217641;1257;140483;-70
2024/04/23 10:22:39;;;;;;;5.30;4.70;;;;;;;11.35;51.35;100225.48;217516;1257;140452;-70
2024/04/23 10:27:41;;;;;;;3.90;3.60;;;;;;;11.78;52.18;100220.96;217270;1258;139605;-69
2024/04/23 10:32:43;;;;;;;5.00;4.00;;;;;;;12.26;51.42;100201.46;218187;1260;139952;-68
2024/04/23 10:37:47;;;;;;;4.50;4.00;;;;;;;12.61;50.75;100195.77;217128;1263;139846;-70
2024/04/23 10:42:49;;;;;;;5.60;5.00;;;;;;;12.70;49.99;100184.77;217017;1264;141005;-70
2024/04/23 10:47:51;;;;;;;4.60;4.10;;;;;;;12.86;49.23;100180.10;217017;1258;140719;-69
2024/04/23 10:52:56;;;;;;;5.60;5.00;;;;;;;12.99;48.58;100171.14;216969;1258;142372;-69
2024/04/23 10:57:58;;;;;;;5.80;4.70;;;;;;;12.90;47.87;100168.52;217147;1259;140414;-67
2024/04/23 11:02:59;;;;;;;5.10;4.60;;;;;;;12.76;47.45;100165.36;218951;1259;140294;-70
2024/04/23 11:08:07;;;;;;;5.90;4.90;;;;;;;12.59;47.46;100161.67;219106;1259;140318;-73
2024/04/23 11:13:09;;;;;;;5.90;5.20;;;;;;;12.18;47.55;100158.15;216794;1259;140560;-70
2024/04/23 11:18:19;;;;;;;4.90;4.30;;;;;;;12.28;47.44;100148.30;217539;1258;140189;-70
2024/04/23 11:23:22;;;;;;;6.60;4.80;;;;;;;12.48;47.15;100132.79;217908;1259;140479;-70
2024/04/23 11:28:24;;;;;;;5.50;4.90;;;;;;;12.59;46.98;100124.30;217735;1261;140226;-72
2024/04/23 11:33:26;;;;;;;9.80;5.80;;;;;;;12.56;46.44;100112.23;217375;1259;140667;-70
2024/04/23 11:38:42;;;;;;;6.60;5.20;;;;;;;12.56;46.42;100113.52;217068;1259;1008475;-70
2024/04/23 11:43:44;;;;;;;5.10;4.00;;;;;;;12.49;46.33;100106.33;217824;1258;139701;-71
2024/04/23 11:48:46;;;;;;;4.90;4.40;;;;;;;12.45;45.69;100100.42;217637;1259;139825;-74
2024/04/23 11:53:48;;;;;;;5.90;5.10;;;;;;;12.40;45.51;100092.95;217358;1259;140980;-71
2024/04/23 11:58:52;;;;;;;6.20;5.60;;;;;;;12.41;45.28;100086.27;217232;1259;139309;-72
2024/04/23 12:03:56;;;;;;;6.40;5.70;;;;;;;12.22;45.87;100073.98;217366;1260;139935;-68
2024/04/23 12:08:58;;;;;;;6.80;5.50;;;;;;;12.37;46.67;100056.94;217226;1259;140231;-70
2024/04/23 12:14:00;;;;;;;7.10;5.50;;;;;;;12.38;46.05;100051.99;217396;1260;139453;-71
2024/04/23 12:19:03;;;;;;;6.30;5.20;;;;;;;12.30;45.47;100049.97;217459;1260;141070;-70
2024/04/23 12:24:05;;;;;;;5.10;4.60;;;;;;;12.27;45.64;100037.48;217351;1260;140570;-71
2024/04/23 12:29:08;;;;;;;5.90;5.40;;;;;;;12.31;45.40;100029.67;217426;1259;140106;-70
2024/04/23 12:34:09;;;;;;;5.90;5.40;;;;;;;12.09;44.56;100021.29;217462;1257;140268;-69
2024/04/23 12:39:11;;;;;;;9.80;5.30;;;;;;;11.99;44.75;100015.58;217826;1261;139425;-71
2024/04/23 12:44:39;;;;;;;7.70;7.00;;;;;;;12.09;45.17;100011.35;217415;1257;140635;-71
2024/04/23 12:49:41;;;;;;;6.90;5.80;;;;;;;12.09;44.73;99996.44;218110;1261;140412;-72
2024/04/23 12:54:43;;;;;;;5.70;5.10;;;;;;;11.96;44.69;99988.86;218049;1257;152132;-71
2024/04/23 12:59:45;;;;;;;6.50;5.30;;;;;;;11.72;44.82;99978.59;217450;1259;139962;-70
2024/04/23 13:04:47;;;;;;;6.50;5.70;;;;;;;11.85;45.21;99969.91;217330;1260;139017;-71
2024/04/23 13:09:48;;;;;;;6.60;5.40;;;;;;;11.98;45.56;99969.79;218329;1259;140940;-72
2024/04/23 13:14:49;;;;;;;10.20;7.10;;;;;;;11.95;45.01;99970.79;217281;1261;139708;-73
2024/04/23 13:19:52;;;;;;;9.00;4.80;;;;;;;11.88;44.79;99962.43;217514;1257;139437;-70
2024/04/23 13:24:54;;;;;;;8.30;6.00;;;;;;;11.71;44.32;99959.52;217153;1260;140297;-71
2024/04/23 13:29:55;;;;;;;6.20;5.60;;;;;;;11.61;44.43;99947.64;218448;1257;139749;-71
2024/04/23 13:34:57;;;;;;;5.30;4.80;;;;;;;11.71;44.51;99943.30;217372;1257;140099;-72
2024/04/23 13:40:02;;;;;;;6.80;5.80;;;;;;;11.61;43.82;99940.61;217562;1261;142472;-72
2024/04/23 13:45:04;;;;;;;6.00;5.40;;;;;;;11.69;44.65;99927.23;217546;1261;140833;-72
2024/04/23 13:50:10;;;;;;;7.10;6.40;;;;;;;11.66;44.47;99922.48;217567;1262;139327;-70
2024/04/23 13:55:14;;;;;;;5.80;5.30;;;;;;;11.58;44.44;99913.48;217154;1261;140868;-72
2024/04/23 14:00:16;;;;;;;6.90;6.20;;;;;;;11.61;44.27;99907.66;217358;1262;140498;-72
2024/04/23 14:05:19;;;;;;;13.60;6.30;;;;;;;11.45;43.86;99898.95;218187;1263;140494;-70
2024/04/23 14:10:21;;;;;;;6.90;6.20;;;;;;;11.47;44.19;99895.95;217876;1257;141713;-71
2024/04/23 14:15:23;;;;;;;5.50;5.00;;;;;;;11.53;44.28;99890.41;217463;1261;142086;-72
2024/04/23 14:20:25;;;;;;;5.50;4.70;;;;;;;11.59;44.07;99878.19;217781;1256;139705;-72
2024/04/23 14:25:26;;;;;;;6.90;5.60;;;;;;;11.39;43.13;99875.27;217447;1263;140265;-72
2024/04/23 14:30:28;;;;;;;5.70;5.10;;;;;;;11.07;43.10;99858.89;217386;1261;139394;-72
2024/04/23 14:35:30;;;;;;;5.80;5.20;;;;;;;11.11;43.70;99853.58;217542;1263;139570;-72
2024/04/23 14:40:32;;;;;;;6.80;6.10;;;;;;;11.26;44.20;99853.21;217575;1263;139477;-71
2024/04/23 14:45:34;;;;;;;4.80;4.40;;;;;;;11.37;43.96;99844.59;217227;1260;141223;-71
2024/04/23 14:50:37;;;;;;;6.70;5.20;;;;;;;11.33;43.67;99841.64;217342;1263;139789;-72
2024/04/23 14:55:39;;;;;;;6.10;5.30;;;;;;;11.31;43.53;99837.98;217888;1263;140863;-72
2024/04/23 15:00:40;;;;;;;5.00;4.50;;;;;;;11.28;43.32;99831.83;217445;1261;140321;-71
2024/04/23 15:05:42;;;;;;;6.20;5.60;;;;;;;11.25;43.27;99831.14;217810;1260;139915;-71
2024/04/23 15:10:44;;;;;;;6.90;6.30;;;;;;;11.09;43.03;99825.58;217356;1257;139917;-70
2024/04/23 15:15:46;;;;;;;9.10;5.90;;;;;;;11.01;43.63;99820.02;217432;1260;140138;-71
2024/04/23 15:20:48;;;;;;;9.40;6.70;;;;;;;11.01;43.45;99818.90;217603;1260;139906;-71
2024/04/23 15:25:49;;;;;;;6.30;5.50;;;;;;;10.80;43.24;99814.46;217347;1260;139899;-72
2024/04/23 15:30:51;;;;;;;5.50;4.70;;;;;;;10.70;43.42;99812.48;217580;1261;139225;-71
2024/04/23 15:36:00;;;;;;;14.40;7.40;;;;;;;10.65;42.86;99811.45;218341;1257;140338;-71
2024/04/23 15:41:05;;;;;;;6.00;5.40;;;;;;;10.53;42.86;99796.28;217518;1259;140489;-72
2024/04/23 15:46:13;;;;;;;6.00;5.50;;;;;;;10.55;43.18;99787.20;217997;1260;138940;-73
2024/04/23 15:51:15;;;;;;;6.60;5.90;;;;;;;10.64;43.51;99786.51;217640;1257;139360;-73
2024/04/23 15:56:16;;;;;;;10.20;6.60;;;;;;;10.63;43.19;99787.66;217944;1260;139832;-72
2024/04/23 16:01:19;;;;;;;6.40;5.80;;;;;;;10.60;43.05;99783.59;217470;1257;139815;-69
2024/04/23 16:06:21;;;;;;;9.10;5.60;;;;;;;10.39;42.56;99781.70;217226;1260;139670;-72
2024/04/23 16:11:22;;;;;;;7.00;6.30;;;;;;;10.22;42.75;99785.54;217506;1260;139519;-72
2024/04/23 16:16:28;;;;;;;7.70;6.90;;;;;;;10.10;43.25;99789.23;217158;1257;140857;-73
2024/04/23 16:21:29;;;;;;;8.10;5.90;;;;;;;10.05;44.28;99780.91;217362;1257;139321;-71
2024/04/23 16:26:31;;;;;;;8.40;6.40;;;;;;;9.93;44.36;99780.52;217559;1260;140738;-72
2024/04/23 16:31:33;;;;;;;9.70;5.80;;;;;;;9.74;44.71;99783.60;217333;1258;139737;-70
2024/04/23 16:36:34;;;;;;;7.20;6.30;;;;;;;9.59;46.42;99778.55;217575;1258;140300;-71
2024/04/23 16:41:36;;;;;;;10.90;6.10;;;;;;;9.46;46.86;99775.86;217405;1260;141494;-69
2024/04/23 16:46:38;;;;;;;7.30;6.20;;;;;;;9.32;46.30;99771.84;217273;1260;139987;-70
2024/04/23 16:51:40;;;;;;;7.90;6.00;;;;;;;9.20;47.24;99761.98;218529;1257;140349;-72
2024/04/23 16:56:42;;;;;;;10.90;7.30;;;;;;;9.09;48.37;99760.30;218626;1260;141220;-69
2024/04/23 17:01:43;;;;;;;6.40;5.60;;;;;;;8.95;48.79;99755.59;217340;1258;139905;-70
2024/04/23 17:06:45;;;;;;;7.70;6.60;;;;;;;8.82;49.72;99742.27;217371;1260;139442;-70
2024/04/23 17:11:47;;;;;;;7.40;6.60;;;;;;;8.68;50.51;99735.10;217372;1258;139005;-69
2024/04/23 17:16:49;;;;;;;7.50;6.50;;;;;;;8.54;51.02;99728.32;217401;1257;139644;-69
2024/04/23 17:21:52;;;;;;;10.90;6.50;;;;;;;8.37;51.22;99726.88;217686;1260;139358;-70
2024/04/23 17:26:54;;;;;;;10.10;6.70;;;;;;;8.22;51.66;99718.80;217299;1258;139625;-68
2024/04/23 17:31:56;;;;;;;8.10;5.80;;;;;;;8.10;52.06;99713.87;217174;1256;139841;-69
2024/04/23 17:36:58;;;;;;;6.30;5.40;;;;;;;7.97;52.29;99709.61;217014;1258;139925;-70
2024/04/23 17:42:00;;;;;;;8.50;6.60;;;;;;;7.84;52.61;99708.19;217122;1259;139904;-68
2024/04/23 17:47:01;;;;;;;6.50;5.90;;;;;;;7.71;53.20;99708.30;217135;1257;139546;-70
2024/04/23 17:52:02;;;;;;;11.10;7.90;;;;;;;7.55;52.60;99697.33;217222;1262;139182;-67
2024/04/23 17:57:04;;;;;;;9.30;6.70;;;;;;;7.38;53.13;99689.12;217818;1258;140071;-70
2024/04/23 18:02:05;;;;;;;13.10;8.50;;;;;;;7.24;52.95;99686.86;217215;1261;140341;-68
2024/04/23 18:07:06;;;;;;;8.60;6.80;;;;;;;7.12;53.33;99692.63;218232;1257;138946;-68
2024/04/23 18:12:08;;;;;;;10.00;7.60;;;;;;;6.99;53.50;99695.13;217372;1260;139556;-68
2024/04/23 18:17:10;;;;;;;16.80;10.10;;;;;;;6.87;53.91;99692.13;217109;1257;139641;-68
2024/04/23 18:22:11;;;;;;;15.90;8.60;;;;;;;6.77;53.55;99694.23;217339;1261;139723;-68
2024/04/23 18:27:15;;;;;;;14.10;9.50;;;;;;;6.66;53.85;99697.96;217196;1258;139421;-68
2024/04/23 18:32:17;;;;;;;18.80;11.50;;;;;;;6.53;54.51;99698.50;217465;1261;206817;-68
2024/04/23 18:37:18;;;;;;;14.90;9.10;;;;;;;6.41;54.82;99701.35;217319;1259;140017;-68
2024/04/23 18:42:20;;;;;;;15.10;9.90;;;;;;;6.26;55.02;99701.02;217258;1261;139661;-67
2024/04/23 18:47:22;;;;;;;11.70;9.20;;;;;;;6.12;55.23;99702.27;216994;1258;139387;-68
2024/04/23 18:52:23;;;;;;;11.40;9.50;;;;;;;5.99;56.11;99696.77;218270;1261;139165;-69
2024/04/23 18:57:25;;;;;;;13.50;9.80;;;;;;;5.85;56.82;99703.59;217114;1257;139814;-68
2024/04/23 19:02:28;;;;;;;12.40;9.70;;;;;;;5.67;56.98;99702.08;217176;1261;139607;-68
2024/04/23 19:07:30;;;;;;;12.90;9.50;;;;;;;5.53;57.78;99701.68;217042;1259;140128;-68
2024/04/23 19:12:32;;;;;;;14.20;9.90;;;;;;;5.37;58.05;99695.20;217132;1259;139881;-67
2024/04/23 19:17:33;;;;;;;16.80;9.10;;;;;;;5.20;58.59;99683.70;216852;1257;140483;-69
2024/04/23 19:22:35;;;;;;;14.60;10.10;;;;;;;5.03;58.91;99678.48;217175;1259;139754;-68
2024/04/23 19:27:36;;;;;;;21.20;13.90;;;;;;;4.87;59.46;99678.68;217250;1257;139725;-69
2024/04/23 19:32:38;;;;;;;29.20;15.50;;;;;;;4.72;60.01;99681.02;217420;1257;140077;-68
2024/04/23 19:37:39;;;;;;;32.80;17.40;;;;;;;4.60;60.32;99674.33;217207;1257;140210;-69
2024/04/23 19:42:41;;;;;;;25.80;17.00;;;;;;;4.50;60.62;99662.19;217232;1257;150564;-69
2024/04/23 19:47:42;;;;;;;22.00;14.20;;;;;;;4.43;61.21;99655.86;217831;1257;139461;-68
2024/04/23 19:52:46;;;;;;;23.00;15.60;;;;;;;4.35;61.41;99655.00;217205;1257;139933;-68
2024/04/23 20:03:08;;;;;;;18.70;13.00;;;;;;;4.20;62.25;99638.59;217694;1257;140783;-68
2024/04/23 20:08:10;;;;;;;17.90;14.10;;;;;;;4.14;62.32;99633.80;217337;1257;141531;-66
2024/04/23 20:13:12;;;;;;;14.00;9.90;;;;;;;4.10;62.33;99630.58;217170;1257;140728;-67
2024/04/23 20:18:17;;;;;;;20.40;11.60;;;;;;;4.09;63.00;99629.03;218068;1257;140421;-69
2024/04/23 20:23:19;;;;;;;17.60;11.20;;;;;;;4.05;63.06;99625.96;218629;1257;140251;-68
2024/04/23 20:28:21;;;;;;;14.90;10.50;;;;;;;4.02;63.17;99618.73;217992;1257;141126;-67
2024/04/23 20:33:23;;;;;;;19.10;11.90;;;;;;;4.00;63.36;99620.79;219455;1257;141640;-69
2024/04/23 20:38:25;;;;;;;24.90;12.10;;;;;;;4.00;63.40;99616.52;219940;1257;141087;-67
2024/04/23 20:43:26;;;;;;;20.30;13.10;;;;;;;4.06;63.22;99607.55;217381;1257;140338;-66
2024/04/23 20:48:28;;;;;;;21.00;13.30;;;;;;;4.12;63.20;99603.77;217397;1260;139741;-68
2024/04/23 20:53:30;;;;;;;15.80;11.10;;;;;;;4.17;62.96;99598.56;217241;1257;140697;-68
2024/04/23 20:58:36;;;;;;;17.90;12.20;;;;;;;4.19;62.74;99593.25;217107;1260;140459;-70
2024/04/23 21:03:38;;;;;;;22.30;14.60;;;;;;;4.18;62.82;99589.11;217187;1257;139869;-66
2024/04/23 21:08:41;;;;;;;17.40;12.00;;;;;;;4.19;62.74;99583.67;217403;1257;139611;-69
2024/04/23 21:13:43;;;;;;;18.10;12.00;;;;;;;4.20;62.61;99576.02;217580;1257;140255;-68
2024/04/23 21:18:46;;;;;;;16.40;11.60;;;;;;;4.21;62.51;99570.09;217379;1258;142365;-69
2024/04/23 21:23:47;;;;;;;19.00;12.30;;;;;;;4.17;62.33;99562.39;217348;1257;141002;-69
2024/04/23 21:28:49;;;;;;;19.20;12.50;;;;;;;4.14;62.45;99554.55;217112;1260;140001;-67
2024/04/23 21:33:51;;;;;;;17.70;13.30;;;;;;;4.11;62.47;99548.36;217082;1258;139542;-67
2024/04/23 21:38:53;;;;;;;19.30;11.80;;;;;;;4.08;62.35;99545.39;217417;1258;140309;-67
2024/04/23 21:43:54;;;;;;;20.40;14.00;;;;;;;4.04;62.34;99543.22;217217;1260;141404;-69
2024/04/23 21:48:56;;;;;;;19.70;13.40;;;;;;;4.03;62.39;99540.57;217171;1256;140369;-68
2024/04/23 21:53:58;;;;;;;21.70;14.10;;;;;;;3.99;62.61;99531.89;218197;1260;140180;-67
2024/04/23 21:58:59;;;;;;;19.10;12.30;;;;;;;3.97;62.78;99532.95;218066;1257;141508;-70
2024/04/23 22:04:00;;;;;;;21.30;13.10;;;;;;;3.93;62.81;99523.89;217068;1260;142183;-69
2024/04/23 22:09:02;;;;;;;21.50;15.80;;;;;;;3.90;62.87;99513.11;217808;1260;139952;-67
2024/04/23 22:14:04;;;;;;;24.00;13.20;;;;;;;3.86;62.87;99510.05;218340;1258;140559;-67
2024/04/23 22:19:05;;;;;;;17.20;12.40;;;;;;;3.82;62.74;99499.69;217169;1257;141694;-67
2024/04/23 22:24:07;;;;;;;24.90;14.70;;;;;;;3.79;63.07;99491.67;217821;1258;140955;-66
2024/04/23 22:29:09;;;;;;;20.50;14.70;;;;;;;3.78;63.19;99486.13;217381;1257;140257;-67
2024/04/23 22:34:10;;;;;;;24.80;14.90;;;;;;;3.78;63.28;99474.95;216997;1257;139879;-69
2024/04/23 22:39:12;;;;;;;15.30;12.20;;;;;;;3.76;63.35;99475.00;217235;1257;140861;-67
2024/04/23 22:44:13;;;;;;;21.20;13.60;;;;;;;3.71;63.49;99476.11;217844;1257;140308;-69
2024/04/23 22:49:15;;;;;;;19.30;12.90;;;;;;;3.65;63.59;99470.59;218268;1258;140834;-67
2024/04/23 22:54:17;;;;;;;23.50;13.80;;;;;;;3.64;63.80;99466.73;217153;1260;141029;-66
2024/04/23 22:59:18;;;;;;;20.80;11.90;;;;;;;3.61;63.82;99463.15;217492;1258;140928;-68
2024/04/23 23:04:20;;;;;;;21.30;14.10;;;;;;;3.59;63.88;99460.26;217124;1260;142017;-67